sensor_id;sensor_type;location;lat;lon;timestamp;P1;durP1;ratioP1;P2;durP2;ratioP2
14241;SDS011;7205;50.864;12.766;2022-07-01T00:01:58;6.57;;;5.90;;
14241;SDS011;7205;50.864;12.766;2022-07-01T00:04:26;5.77;;;5.27;;
14241;SDS011;7205;50.864;12.766;2022-07-01T00:07:13;5.33;;;4.87;;
14241;SDS011;7205;50.864;12.766;2022-07-01T00:09:41;6.10;;;4.97;;
14241;SDS011;7205;50.864;12.766;2022-07-01T00:12:08;6.47;;;5.20;;
14241;SDS011;7205;50.864;12.766;2022-07-01T00:14:35;6.97;;;5.47;;
14241;SDS011;7205;50.864;12.766;2022-07-01T00:17:02;5.30;;;4.80;;
14241;SDS011;7205;50.864;12.766;2022-07-01T00:19:31;6.13;;;4.70;;
14241;SDS011;7205;50.864;12.766;2022-07-01T00:22:00;8.93;;;5.40;;
14241;SDS011;7205;50.864;12.766;2022-07-01T00:24:27;5.53;;;4.57;;
14241;SDS011;7205;50.864;12.766;2022-07-01T00:26:54;4.77;;;4.40;;
14241;SDS011;7205;50.864;12.766;2022-07-01T00:29:21;5.33;;;4.83;;
14241;SDS011;7205;50.864;12.766;2022-07-01T00:31:48;5.07;;;4.60;;
14241;SDS011;7205;50.864;12.766;2022-07-01T00:34:15;8.23;;;5.10;;
14241;SDS011;7205;50.864;12.766;2022-07-01T00:36:43;6.63;;;4.67;;
14241;SDS011;7205;50.864;12.766;2022-07-01T00:39:10;5.53;;;3.83;;
14241;SDS011;7205;50.864;12.766;2022-07-01T00:41:37;4.67;;;4.27;;
14241;SDS011;7205;50.864;12.766;2022-07-01T00:44:04;7.60;;;4.67;;
14241;SDS011;7205;50.864;12.766;2022-07-01T00:46:31;6.87;;;4.73;;
14241;SDS011;7205;50.864;12.766;2022-07-01T00:48:59;5.63;;;4.77;;
14241;SDS011;7205;50.864;12.766;2022-07-01T00:51:26;6.80;;;5.60;;
14241;SDS011;7205;50.864;12.766;2022-07-01T00:53:56;5.43;;;4.80;;
14241;SDS011;7205;50.864;12.766;2022-07-01T00:56:24;5.47;;;4.63;;
14241;SDS011;7205;50.864;12.766;2022-07-01T00:58:51;6.10;;;4.30;;
14241;SDS011;7205;50.864;12.766;2022-07-01T01:01:18;5.93;;;4.73;;
14241;SDS011;7205;50.864;12.766;2022-07-01T01:03:46;4.63;;;4.03;;
14241;SDS011;7205;50.864;12.766;2022-07-01T01:06:13;6.33;;;3.93;;
14241;SDS011;7205;50.864;12.766;2022-07-01T01:08:41;5.67;;;4.10;;
14241;SDS011;7205;50.864;12.766;2022-07-01T01:11:11;4.70;;;4.23;;
14241;SDS011;7205;50.864;12.766;2022-07-01T01:13:38;4.50;;;4.10;;
14241;SDS011;7205;50.864;12.766;2022-07-01T01:16:05;6.03;;;4.67;;
14241;SDS011;7205;50.864;12.766;2022-07-01T01:18:41;5.60;;;4.53;;
14241;SDS011;7205;50.864;12.766;2022-07-01T01:21:12;4.57;;;4.20;;
14241;SDS011;7205;50.864;12.766;2022-07-01T01:23:39;4.93;;;4.40;;
14241;SDS011;7205;50.864;12.766;2022-07-01T01:26:14;4.77;;;4.13;;
14241;SDS011;7205;50.864;12.766;2022-07-01T01:28:45;5.70;;;4.30;;
14241;SDS011;7205;50.864;12.766;2022-07-01T01:31:12;5.83;;;4.20;;
14241;SDS011;7205;50.864;12.766;2022-07-01T01:33:40;6.67;;;4.33;;
14241;SDS011;7205;50.864;12.766;2022-07-01T01:36:07;5.70;;;4.53;;
14241;SDS011;7205;50.864;12.766;2022-07-01T01:38:36;4.37;;;4.07;;
14241;SDS011;7205;50.864;12.766;2022-07-01T01:41:03;7.13;;;4.17;;
14241;SDS011;7205;50.864;12.766;2022-07-01T01:43:30;5.77;;;4.50;;
14241;SDS011;7205;50.864;12.766;2022-07-01T01:46:00;5.80;;;4.40;;
14241;SDS011;7205;50.864;12.766;2022-07-01T01:48:28;5.57;;;4.40;;
14241;SDS011;7205;50.864;12.766;2022-07-01T01:50:55;8.17;;;4.50;;
14241;SDS011;7205;50.864;12.766;2022-07-01T01:53:22;6.20;;;4.73;;
14241;SDS011;7205;50.864;12.766;2022-07-01T01:55:51;5.43;;;4.33;;
14241;SDS011;7205;50.864;12.766;2022-07-01T01:58:18;5.20;;;4.70;;
14241;SDS011;7205;50.864;12.766;2022-07-01T02:00:45;6.07;;;4.67;;
14241;SDS011;7205;50.864;12.766;2022-07-01T02:03:12;5.80;;;4.93;;
14241;SDS011;7205;50.864;12.766;2022-07-01T02:05:39;5.80;;;5.30;;
14241;SDS011;7205;50.864;12.766;2022-07-01T02:08:06;5.73;;;5.33;;
14241;SDS011;7205;50.864;12.766;2022-07-01T02:10:33;6.17;;;5.53;;
14241;SDS011;7205;50.864;12.766;2022-07-01T02:13:01;6.27;;;5.47;;
14241;SDS011;7205;50.864;12.766;2022-07-01T02:15:28;5.77;;;5.20;;
14241;SDS011;7205;50.864;12.766;2022-07-01T02:17:55;6.07;;;5.50;;
14241;SDS011;7205;50.864;12.766;2022-07-01T02:20:22;5.57;;;5.03;;
14241;SDS011;7205;50.864;12.766;2022-07-01T02:22:49;6.10;;;5.53;;
14241;SDS011;7205;50.864;12.766;2022-07-01T02:25:18;5.57;;;5.03;;
14241;SDS011;7205;50.864;12.766;2022-07-01T02:27:47;6.23;;;5.50;;
14241;SDS011;7205;50.864;12.766;2022-07-01T02:30:15;6.57;;;5.10;;
14241;SDS011;7205;50.864;12.766;2022-07-01T02:32:42;9.63;;;5.10;;
14241;SDS011;7205;50.864;12.766;2022-07-01T02:35:09;5.67;;;5.10;;
14241;SDS011;7205;50.864;12.766;2022-07-01T02:37:40;5.30;;;4.80;;
14241;SDS011;7205;50.864;12.766;2022-07-01T02:40:07;5.20;;;4.80;;
14241;SDS011;7205;50.864;12.766;2022-07-01T02:42:36;5.77;;;4.40;;
14241;SDS011;7205;50.864;12.766;2022-07-01T02:45:04;5.30;;;4.50;;
14241;SDS011;7205;50.864;12.766;2022-07-01T02:47:34;6.47;;;4.43;;
14241;SDS011;7205;50.864;12.766;2022-07-01T02:50:02;5.73;;;4.67;;
14241;SDS011;7205;50.864;12.766;2022-07-01T02:52:30;6.07;;;4.87;;
14241;SDS011;7205;50.864;12.766;2022-07-01T02:54:57;4.83;;;4.30;;
14241;SDS011;7205;50.864;12.766;2022-07-01T02:57:24;5.23;;;4.50;;
14241;SDS011;7205;50.864;12.766;2022-07-01T02:59:51;5.23;;;4.60;;
14241;SDS011;7205;50.864;12.766;2022-07-01T03:02:18;9.87;;;4.77;;
14241;SDS011;7205;50.864;12.766;2022-07-01T03:04:48;5.23;;;4.50;;
14241;SDS011;7205;50.864;12.766;2022-07-01T03:07:16;7.60;;;5.07;;
14241;SDS011;7205;50.864;12.766;2022-07-01T03:09:45;5.57;;;4.83;;
14241;SDS011;7205;50.864;12.766;2022-07-01T03:12:12;5.67;;;5.17;;
14241;SDS011;7205;50.864;12.766;2022-07-01T03:14:53;7.77;;;5.10;;
14241;SDS011;7205;50.864;12.766;2022-07-01T03:17:21;5.80;;;5.27;;
14241;SDS011;7205;50.864;12.766;2022-07-01T03:19:50;4.77;;;4.43;;
14241;SDS011;7205;50.864;12.766;2022-07-01T03:22:18;4.97;;;4.57;;
14241;SDS011;7205;50.864;12.766;2022-07-01T03:24:46;4.93;;;4.30;;
14241;SDS011;7205;50.864;12.766;2022-07-01T03:27:13;9.00;;;4.70;;
14241;SDS011;7205;50.864;12.766;2022-07-01T03:29:40;5.70;;;4.17;;
14241;SDS011;7205;50.864;12.766;2022-07-01T03:32:07;6.23;;;5.03;;
14241;SDS011;7205;50.864;12.766;2022-07-01T03:34:35;6.47;;;4.10;;
14241;SDS011;7205;50.864;12.766;2022-07-01T03:37:04;5.90;;;4.70;;
14241;SDS011;7205;50.864;12.766;2022-07-01T03:39:32;7.57;;;4.90;;
14241;SDS011;7205;50.864;12.766;2022-07-01T03:41:59;5.03;;;4.53;;
14241;SDS011;7205;50.864;12.766;2022-07-01T03:44:26;7.93;;;4.37;;
14241;SDS011;7205;50.864;12.766;2022-07-01T03:46:53;4.80;;;4.40;;
14241;SDS011;7205;50.864;12.766;2022-07-01T03:49:20;5.03;;;4.00;;
14241;SDS011;7205;50.864;12.766;2022-07-01T03:51:47;10.80;;;4.47;;
14241;SDS011;7205;50.864;12.766;2022-07-01T03:54:16;4.10;;;3.80;;
14241;SDS011;7205;50.864;12.766;2022-07-01T03:56:56;5.13;;;3.77;;
14241;SDS011;7205;50.864;12.766;2022-07-01T03:59:22;4.80;;;4.30;;
14241;SDS011;7205;50.864;12.766;2022-07-01T04:01:49;4.83;;;4.17;;
14241;SDS011;7205;50.864;12.766;2022-07-01T04:04:16;5.33;;;4.10;;
14241;SDS011;7205;50.864;12.766;2022-07-01T04:06:42;4.43;;;4.00;;
14241;SDS011;7205;50.864;12.766;2022-07-01T04:09:10;6.23;;;4.50;;
14241;SDS011;7205;50.864;12.766;2022-07-01T04:11:40;4.67;;;3.97;;
14241;SDS011;7205;50.864;12.766;2022-07-01T04:14:08;4.20;;;3.90;;
14241;SDS011;7205;50.864;12.766;2022-07-01T04:16:36;4.53;;;4.10;;
14241;SDS011;7205;50.864;12.766;2022-07-01T04:19:03;4.17;;;3.87;;
14241;SDS011;7205;50.864;12.766;2022-07-01T04:21:30;4.83;;;4.30;;
14241;SDS011;7205;50.864;12.766;2022-07-01T04:24:15;4.10;;;3.77;;
14241;SDS011;7205;50.864;12.766;2022-07-01T04:26:44;4.50;;;3.73;;
14241;SDS011;7205;50.864;12.766;2022-07-01T04:29:11;6.93;;;4.60;;
14241;SDS011;7205;50.864;12.766;2022-07-01T04:31:38;4.50;;;4.20;;
14241;SDS011;7205;50.864;12.766;2022-07-01T04:34:05;4.40;;;4.00;;
14241;SDS011;7205;50.864;12.766;2022-07-01T04:36:33;4.30;;;3.93;;
14241;SDS011;7205;50.864;12.766;2022-07-01T04:39:01;4.67;;;4.27;;
14241;SDS011;7205;50.864;12.766;2022-07-01T04:41:29;4.23;;;3.90;;
14241;SDS011;7205;50.864;12.766;2022-07-01T04:44:15;5.30;;;4.80;;
14241;SDS011;7205;50.864;12.766;2022-07-01T04:46:42;5.40;;;4.50;;
14241;SDS011;7205;50.864;12.766;2022-07-01T04:49:10;7.80;;;5.27;;
14241;SDS011;7205;50.864;12.766;2022-07-01T04:51:37;5.27;;;4.40;;
14241;SDS011;7205;50.864;12.766;2022-07-01T04:54:04;7.20;;;4.80;;
14241;SDS011;7205;50.864;12.766;2022-07-01T04:56:32;5.70;;;5.07;;
14241;SDS011;7205;50.864;12.766;2022-07-01T04:59:00;5.00;;;4.60;;
14241;SDS011;7205;50.864;12.766;2022-07-01T05:01:28;4.67;;;4.27;;
14241;SDS011;7205;50.864;12.766;2022-07-01T05:03:56;4.63;;;4.30;;
14241;SDS011;7205;50.864;12.766;2022-07-01T05:06:23;5.07;;;4.70;;
14241;SDS011;7205;50.864;12.766;2022-07-01T05:08:50;7.20;;;4.30;;
14241;SDS011;7205;50.864;12.766;2022-07-01T05:11:17;4.77;;;4.37;;
14241;SDS011;7205;50.864;12.766;2022-07-01T05:13:44;4.80;;;4.40;;
14241;SDS011;7205;50.864;12.766;2022-07-01T05:16:11;5.03;;;4.50;;
14241;SDS011;7205;50.864;12.766;2022-07-01T05:18:39;5.20;;;4.80;;
14241;SDS011;7205;50.864;12.766;2022-07-01T05:21:24;4.87;;;4.57;;
14241;SDS011;7205;50.864;12.766;2022-07-01T05:24:08;5.97;;;4.90;;
14241;SDS011;7205;50.864;12.766;2022-07-01T05:26:35;7.60;;;5.70;;
14241;SDS011;7205;50.864;12.766;2022-07-01T05:29:02;8.10;;;5.20;;
14241;SDS011;7205;50.864;12.766;2022-07-01T05:31:29;5.40;;;4.90;;
14241;SDS011;7205;50.864;12.766;2022-07-01T05:33:58;5.37;;;4.87;;
14241;SDS011;7205;50.864;12.766;2022-07-01T05:36:25;5.30;;;4.80;;
14241;SDS011;7205;50.864;12.766;2022-07-01T05:38:52;5.90;;;4.87;;
14241;SDS011;7205;50.864;12.766;2022-07-01T05:41:19;9.93;;;5.27;;
14241;SDS011;7205;50.864;12.766;2022-07-01T05:43:45;5.67;;;4.70;;
14241;SDS011;7205;50.864;12.766;2022-07-01T05:46:12;10.60;;;5.00;;
14241;SDS011;7205;50.864;12.766;2022-07-01T05:48:40;5.20;;;4.90;;
14241;SDS011;7205;50.864;12.766;2022-07-01T05:51:08;5.70;;;5.17;;
14241;SDS011;7205;50.864;12.766;2022-07-01T05:53:35;5.77;;;5.30;;
14241;SDS011;7205;50.864;12.766;2022-07-01T05:56:01;5.17;;;4.67;;
14241;SDS011;7205;50.864;12.766;2022-07-01T05:58:28;6.80;;;5.00;;
14241;SDS011;7205;50.864;12.766;2022-07-01T06:00:55;5.17;;;4.67;;
14241;SDS011;7205;50.864;12.766;2022-07-01T06:03:23;4.97;;;4.57;;
14241;SDS011;7205;50.864;12.766;2022-07-01T06:05:50;5.47;;;5.00;;
14241;SDS011;7205;50.864;12.766;2022-07-01T06:08:18;5.57;;;5.20;;
14241;SDS011;7205;50.864;12.766;2022-07-01T06:10:45;6.10;;;5.70;;
14241;SDS011;7205;50.864;12.766;2022-07-01T06:13:12;5.53;;;5.13;;
14241;SDS011;7205;50.864;12.766;2022-07-01T06:15:39;6.07;;;5.57;;
14241;SDS011;7205;50.864;12.766;2022-07-01T06:18:06;7.27;;;6.17;;
14241;SDS011;7205;50.864;12.766;2022-07-01T06:20:33;7.07;;;5.83;;
14241;SDS011;7205;50.864;12.766;2022-07-01T06:23:00;6.27;;;5.77;;
14241;SDS011;7205;50.864;12.766;2022-07-01T06:25:28;8.37;;;5.90;;
14241;SDS011;7205;50.864;12.766;2022-07-01T06:27:55;6.93;;;6.43;;
14241;SDS011;7205;50.864;12.766;2022-07-01T06:30:22;7.00;;;6.47;;
14241;SDS011;7205;50.864;12.766;2022-07-01T06:32:50;7.07;;;6.57;;
14241;SDS011;7205;50.864;12.766;2022-07-01T06:35:17;8.10;;;7.30;;
14241;SDS011;7205;50.864;12.766;2022-07-01T06:37:44;10.53;;;6.87;;
14241;SDS011;7205;50.864;12.766;2022-07-01T06:40:11;8.83;;;7.07;;
14241;SDS011;7205;50.864;12.766;2022-07-01T06:42:40;8.10;;;6.77;;
14241;SDS011;7205;50.864;12.766;2022-07-01T06:45:09;7.63;;;7.03;;
14241;SDS011;7205;50.864;12.766;2022-07-01T06:47:39;7.67;;;6.93;;
14241;SDS011;7205;50.864;12.766;2022-07-01T06:50:06;7.27;;;6.57;;
14241;SDS011;7205;50.864;12.766;2022-07-01T06:52:33;10.10;;;7.00;;
14241;SDS011;7205;50.864;12.766;2022-07-01T06:55:01;7.37;;;6.73;;
14241;SDS011;7205;50.864;12.766;2022-07-01T06:57:27;8.10;;;7.50;;
14241;SDS011;7205;50.864;12.766;2022-07-01T06:59:56;8.17;;;7.33;;
14241;SDS011;7205;50.864;12.766;2022-07-01T07:02:23;7.37;;;6.83;;
14241;SDS011;7205;50.864;12.766;2022-07-01T07:04:50;7.10;;;6.40;;
14241;SDS011;7205;50.864;12.766;2022-07-01T07:07:23;8.33;;;6.87;;
14241;SDS011;7205;50.864;12.766;2022-07-01T07:09:50;7.37;;;6.80;;
14241;SDS011;7205;50.864;12.766;2022-07-01T07:12:17;8.07;;;7.43;;
14241;SDS011;7205;50.864;12.766;2022-07-01T07:14:44;7.33;;;6.67;;
14241;SDS011;7205;50.864;12.766;2022-07-01T07:17:12;8.20;;;7.60;;
14241;SDS011;7205;50.864;12.766;2022-07-01T07:19:39;7.90;;;7.23;;
14241;SDS011;7205;50.864;12.766;2022-07-01T07:22:06;9.23;;;7.63;;
14241;SDS011;7205;50.864;12.766;2022-07-01T07:24:33;7.77;;;7.27;;
14241;SDS011;7205;50.864;12.766;2022-07-01T07:27:03;8.17;;;7.47;;
14241;SDS011;7205;50.864;12.766;2022-07-01T07:29:30;7.97;;;7.27;;
14241;SDS011;7205;50.864;12.766;2022-07-01T07:31:57;8.30;;;7.50;;
14241;SDS011;7205;50.864;12.766;2022-07-01T07:34:26;7.63;;;7.03;;
14241;SDS011;7205;50.864;12.766;2022-07-01T07:36:52;7.73;;;7.13;;
14241;SDS011;7205;50.864;12.766;2022-07-01T07:39:24;7.27;;;6.80;;
14241;SDS011;7205;50.864;12.766;2022-07-01T07:41:51;6.93;;;6.43;;
14241;SDS011;7205;50.864;12.766;2022-07-01T07:44:17;7.57;;;7.07;;
14241;SDS011;7205;50.864;12.766;2022-07-01T07:46:44;7.40;;;6.77;;
14241;SDS011;7205;50.864;12.766;2022-07-01T07:49:11;7.43;;;6.73;;
14241;SDS011;7205;50.864;12.766;2022-07-01T07:51:39;7.23;;;6.73;;
14241;SDS011;7205;50.864;12.766;2022-07-01T07:54:06;8.60;;;7.90;;
14241;SDS011;7205;50.864;12.766;2022-07-01T07:56:33;7.07;;;6.50;;
14241;SDS011;7205;50.864;12.766;2022-07-01T07:59:03;8.07;;;7.37;;
14241;SDS011;7205;50.864;12.766;2022-07-01T08:01:30;7.83;;;7.33;;
14241;SDS011;7205;50.864;12.766;2022-07-01T08:03:57;8.37;;;7.73;;
14241;SDS011;7205;50.864;12.766;2022-07-01T08:06:30;10.27;;;9.37;;
14241;SDS011;7205;50.864;12.766;2022-07-01T08:08:58;15.97;;;11.10;;
14241;SDS011;7205;50.864;12.766;2022-07-01T08:17:49;15.73;;;11.67;;
14241;SDS011;7205;50.864;12.766;2022-07-01T08:22:43;13.03;;;11.87;;
14241;SDS011;7205;50.864;12.766;2022-07-01T08:25:35;12.43;;;11.40;;
14241;SDS011;7205;50.864;12.766;2022-07-01T08:28:34;12.93;;;11.60;;
14241;SDS011;7205;50.864;12.766;2022-07-01T08:31:08;12.80;;;11.70;;
14241;SDS011;7205;50.864;12.766;2022-07-01T08:33:41;11.70;;;10.73;;
14241;SDS011;7205;50.864;12.766;2022-07-01T08:36:12;11.77;;;10.87;;
14241;SDS011;7205;50.864;12.766;2022-07-01T08:38:45;10.73;;;9.97;;
14241;SDS011;7205;50.864;12.766;2022-07-01T08:41:16;10.70;;;9.90;;
14241;SDS011;7205;50.864;12.766;2022-07-01T08:55:36;10.63;;;9.90;;
14241;SDS011;7205;50.864;12.766;2022-07-01T08:58:33;11.10;;;10.13;;
14241;SDS011;7205;50.864;12.766;2022-07-01T09:09:47;10.60;;;9.80;;
14241;SDS011;7205;50.864;12.766;2022-07-01T09:13:10;10.23;;;9.33;;
14241;SDS011;7205;50.864;12.766;2022-07-01T09:25:29;15.10;;;12.00;;
14241;SDS011;7205;50.864;12.766;2022-07-01T09:28:04;15.83;;;14.20;;
14241;SDS011;7205;50.864;12.766;2022-07-01T09:30:33;36.63;;;16.33;;
14241;SDS011;7205;50.864;12.766;2022-07-01T09:33:09;20.00;;;15.07;;
14241;SDS011;7205;50.864;12.766;2022-07-01T09:35:38;17.70;;;15.60;;
14241;SDS011;7205;50.864;12.766;2022-07-01T09:38:11;17.87;;;16.00;;
14241;SDS011;7205;50.864;12.766;2022-07-01T09:44:19;20.17;;;15.67;;
14241;SDS011;7205;50.864;12.766;2022-07-01T09:51:57;16.87;;;15.00;;
14241;SDS011;7205;50.864;12.766;2022-07-01T09:54:27;15.23;;;13.70;;
14241;SDS011;7205;50.864;12.766;2022-07-01T09:56:58;15.60;;;12.83;;
14241;SDS011;7205;50.864;12.766;2022-07-01T09:59:25;15.87;;;14.23;;
14241;SDS011;7205;50.864;12.766;2022-07-01T10:01:54;14.73;;;13.23;;
14241;SDS011;7205;50.864;12.766;2022-07-01T10:04:21;15.63;;;13.97;;
14241;SDS011;7205;50.864;12.766;2022-07-01T10:09:56;14.27;;;12.77;;
14241;SDS011;7205;50.864;12.766;2022-07-01T10:12:34;13.97;;;12.67;;
14241;SDS011;7205;50.864;12.766;2022-07-01T10:15:04;14.30;;;12.80;;
14241;SDS011;7205;50.864;12.766;2022-07-01T10:17:34;12.63;;;11.43;;
14241;SDS011;7205;50.864;12.766;2022-07-01T10:20:07;14.20;;;12.90;;
14241;SDS011;7205;50.864;12.766;2022-07-01T10:22:38;13.30;;;9.50;;
14241;SDS011;7205;50.864;12.766;2022-07-01T10:28:14;12.13;;;10.50;;
14241;SDS011;7205;50.864;12.766;2022-07-01T10:30:49;8.33;;;7.53;;
14241;SDS011;7205;50.864;12.766;2022-07-01T10:33:27;6.40;;;5.70;;
14241;SDS011;7205;50.864;12.766;2022-07-01T10:36:06;7.87;;;7.27;;
14241;SDS011;7205;50.864;12.766;2022-07-01T10:39:07;6.60;;;6.10;;
14241;SDS011;7205;50.864;12.766;2022-07-01T10:41:40;5.80;;;5.40;;
14241;SDS011;7205;50.864;12.766;2022-07-01T10:44:21;4.43;;;4.20;;
14241;SDS011;7205;50.864;12.766;2022-07-01T10:46:50;6.37;;;4.33;;
14241;SDS011;7205;50.864;12.766;2022-07-01T10:52:20;4.33;;;4.10;;
14241;SDS011;7205;50.864;12.766;2022-07-01T10:54:49;4.77;;;4.33;;
14241;SDS011;7205;50.864;12.766;2022-07-01T10:57:28;3.70;;;3.40;;
14241;SDS011;7205;50.864;12.766;2022-07-01T11:03:05;3.40;;;3.23;;
14241;SDS011;7205;50.864;12.766;2022-07-01T11:05:51;3.33;;;3.03;;
14241;SDS011;7205;50.864;12.766;2022-07-01T11:08:21;6.47;;;3.67;;
14241;SDS011;7205;50.864;12.766;2022-07-01T11:10:54;4.00;;;3.80;;
14241;SDS011;7205;50.864;12.766;2022-07-01T11:13:24;3.43;;;3.23;;
14241;SDS011;7205;50.864;12.766;2022-07-01T11:15:52;3.57;;;3.37;;
14241;SDS011;7205;50.864;12.766;2022-07-01T11:18:19;2.87;;;2.77;;
14241;SDS011;7205;50.864;12.766;2022-07-01T11:20:47;4.13;;;2.63;;
14241;SDS011;7205;50.864;12.766;2022-07-01T11:23:16;3.40;;;3.17;;
14241;SDS011;7205;50.864;12.766;2022-07-01T11:25:45;3.90;;;3.53;;
14241;SDS011;7205;50.864;12.766;2022-07-01T11:28:14;3.87;;;3.57;;
14241;SDS011;7205;50.864;12.766;2022-07-01T11:30:41;3.90;;;3.70;;
14241;SDS011;7205;50.864;12.766;2022-07-01T11:33:08;3.97;;;3.77;;
14241;SDS011;7205;50.864;12.766;2022-07-01T11:35:36;4.10;;;3.80;;
14241;SDS011;7205;50.864;12.766;2022-07-01T11:38:21;4.40;;;4.00;;
14241;SDS011;7205;50.864;12.766;2022-07-01T11:41:08;4.53;;;4.13;;
14241;SDS011;7205;50.864;12.766;2022-07-01T11:43:45;4.27;;;4.03;;
14241;SDS011;7205;50.864;12.766;2022-07-01T11:46:13;4.13;;;3.90;;
14241;SDS011;7205;50.864;12.766;2022-07-01T11:48:41;5.03;;;4.00;;
14241;SDS011;7205;50.864;12.766;2022-07-01T11:51:17;4.57;;;3.70;;
14241;SDS011;7205;50.864;12.766;2022-07-01T11:53:46;3.60;;;3.40;;
14241;SDS011;7205;50.864;12.766;2022-07-01T11:56:15;3.77;;;3.47;;
14241;SDS011;7205;50.864;12.766;2022-07-01T11:58:45;4.30;;;4.00;;
14241;SDS011;7205;50.864;12.766;2022-07-01T12:01:23;4.53;;;4.23;;
14241;SDS011;7205;50.864;12.766;2022-07-01T12:03:53;4.73;;;4.20;;
14241;SDS011;7205;50.864;12.766;2022-07-01T12:06:21;4.27;;;3.97;;
14241;SDS011;7205;50.864;12.766;2022-07-01T12:09:02;4.13;;;3.93;;
14241;SDS011;7205;50.864;12.766;2022-07-01T12:11:45;3.87;;;3.67;;
14241;SDS011;7205;50.864;12.766;2022-07-01T12:14:20;4.50;;;4.20;;
14241;SDS011;7205;50.864;12.766;2022-07-01T12:16:47;4.47;;;4.17;;
14241;SDS011;7205;50.864;12.766;2022-07-01T12:19:19;4.43;;;4.23;;
14241;SDS011;7205;50.864;12.766;2022-07-01T12:21:53;4.40;;;4.10;;
14241;SDS011;7205;50.864;12.766;2022-07-01T12:24:23;4.23;;;3.93;;
14241;SDS011;7205;50.864;12.766;2022-07-01T12:27:03;4.53;;;4.33;;
14241;SDS011;7205;50.864;12.766;2022-07-01T12:32:36;5.40;;;4.90;;
14241;SDS011;7205;50.864;12.766;2022-07-01T12:46:37;4.87;;;4.57;;
14241;SDS011;7205;50.864;12.766;2022-07-01T12:49:06;5.00;;;4.50;;
14241;SDS011;7205;50.864;12.766;2022-07-01T12:51:33;5.40;;;4.90;;
14241;SDS011;7205;50.864;12.766;2022-07-01T12:54:00;5.20;;;4.90;;
14241;SDS011;7205;50.864;12.766;2022-07-01T12:56:28;4.80;;;4.50;;
14241;SDS011;7205;50.864;12.766;2022-07-01T12:58:55;4.97;;;4.67;;
14241;SDS011;7205;50.864;12.766;2022-07-01T13:01:23;5.67;;;4.97;;
14241;SDS011;7205;50.864;12.766;2022-07-01T13:03:50;4.83;;;4.53;;
14241;SDS011;7205;50.864;12.766;2022-07-01T13:06:21;4.90;;;4.60;;
14241;SDS011;7205;50.864;12.766;2022-07-01T13:08:48;5.40;;;5.10;;
14241;SDS011;7205;50.864;12.766;2022-07-01T13:11:16;4.77;;;4.47;;
14241;SDS011;7205;50.864;12.766;2022-07-01T13:13:43;4.87;;;4.57;;
14241;SDS011;7205;50.864;12.766;2022-07-01T13:16:10;5.17;;;4.77;;
14241;SDS011;7205;50.864;12.766;2022-07-01T13:18:37;5.83;;;5.43;;
14241;SDS011;7205;50.864;12.766;2022-07-01T13:21:04;5.83;;;5.23;;
14241;SDS011;7205;50.864;12.766;2022-07-01T13:23:32;5.47;;;5.13;;
14241;SDS011;7205;50.864;12.766;2022-07-01T13:32:43;5.37;;;4.97;;
14241;SDS011;7205;50.864;12.766;2022-07-01T13:35:11;6.37;;;5.77;;
14241;SDS011;7205;50.864;12.766;2022-07-01T13:37:39;6.77;;;6.20;;
14241;SDS011;7205;50.864;12.766;2022-07-01T13:40:08;6.60;;;6.10;;
14241;SDS011;7205;50.864;12.766;2022-07-01T13:42:36;6.80;;;6.30;;
14241;SDS011;7205;50.864;12.766;2022-07-01T13:45:04;6.83;;;6.33;;
14241;SDS011;7205;50.864;12.766;2022-07-01T13:47:32;7.70;;;7.10;;
14241;SDS011;7205;50.864;12.766;2022-07-01T13:49:59;8.40;;;7.70;;
14241;SDS011;7205;50.864;12.766;2022-07-01T13:52:32;8.80;;;8.00;;
14241;SDS011;7205;50.864;12.766;2022-07-01T13:54:59;9.07;;;8.27;;
14241;SDS011;7205;50.864;12.766;2022-07-01T13:57:27;7.97;;;7.27;;
14241;SDS011;7205;50.864;12.766;2022-07-01T14:02:21;8.83;;;8.00;;
14241;SDS011;7205;50.864;12.766;2022-07-01T14:04:48;8.23;;;7.53;;
14241;SDS011;7205;50.864;12.766;2022-07-01T14:07:15;8.07;;;7.37;;
14241;SDS011;7205;50.864;12.766;2022-07-01T14:09:42;10.77;;;9.67;;
14241;SDS011;7205;50.864;12.766;2022-07-01T14:12:10;8.60;;;7.80;;
14241;SDS011;7205;50.864;12.766;2022-07-01T14:14:38;7.83;;;7.17;;
14241;SDS011;7205;50.864;12.766;2022-07-01T14:17:05;8.07;;;7.43;;
14241;SDS011;7205;50.864;12.766;2022-07-01T14:19:32;10.80;;;8.83;;
14241;SDS011;7205;50.864;12.766;2022-07-01T14:22:00;7.37;;;6.80;;
14241;SDS011;7205;50.864;12.766;2022-07-01T14:24:27;7.50;;;6.80;;
14241;SDS011;7205;50.864;12.766;2022-07-01T14:26:53;7.33;;;6.73;;
14241;SDS011;7205;50.864;12.766;2022-07-01T14:29:20;7.00;;;6.40;;
14241;SDS011;7205;50.864;12.766;2022-07-01T14:31:49;7.30;;;6.60;;
14241;SDS011;7205;50.864;12.766;2022-07-01T14:34:15;6.27;;;5.80;;
14241;SDS011;7205;50.864;12.766;2022-07-01T14:36:42;6.30;;;5.80;;
14241;SDS011;7205;50.864;12.766;2022-07-01T14:39:09;8.60;;;7.00;;
14241;SDS011;7205;50.864;12.766;2022-07-01T14:41:36;7.43;;;6.83;;
14241;SDS011;7205;50.864;12.766;2022-07-01T14:44:03;6.00;;;5.60;;
14241;SDS011;7205;50.864;12.766;2022-07-01T14:46:30;6.43;;;5.83;;
14241;SDS011;7205;50.864;12.766;2022-07-01T14:48:58;6.23;;;5.73;;
14241;SDS011;7205;50.864;12.766;2022-07-01T14:51:25;5.63;;;5.27;;
14241;SDS011;7205;50.864;12.766;2022-07-01T14:53:52;5.33;;;4.93;;
14241;SDS011;7205;50.864;12.766;2022-07-01T14:56:19;5.83;;;5.33;;
14241;SDS011;7205;50.864;12.766;2022-07-01T14:58:46;6.67;;;6.20;;
14241;SDS011;7205;50.864;12.766;2022-07-01T15:01:13;5.67;;;5.27;;
14241;SDS011;7205;50.864;12.766;2022-07-01T15:03:40;15.67;;;14.27;;
14241;SDS011;7205;50.864;12.766;2022-07-01T15:06:09;5.90;;;5.53;;
14241;SDS011;7205;50.864;12.766;2022-07-01T15:08:36;5.90;;;5.50;;
14241;SDS011;7205;50.864;12.766;2022-07-01T15:11:04;6.03;;;5.53;;
14241;SDS011;7205;50.864;12.766;2022-07-01T15:13:32;4.57;;;4.37;;
14241;SDS011;7205;50.864;12.766;2022-07-01T15:16:00;5.40;;;5.00;;
14241;SDS011;7205;50.864;12.766;2022-07-01T15:18:30;5.10;;;4.70;;
14241;SDS011;7205;50.864;12.766;2022-07-01T15:20:58;4.57;;;4.27;;
14241;SDS011;7205;50.864;12.766;2022-07-01T15:23:27;4.53;;;4.27;;
14241;SDS011;7205;50.864;12.766;2022-07-01T15:25:54;4.70;;;4.40;;
14241;SDS011;7205;50.864;12.766;2022-07-01T15:28:21;5.10;;;4.70;;
14241;SDS011;7205;50.864;12.766;2022-07-01T15:30:49;5.23;;;4.83;;
14241;SDS011;7205;50.864;12.766;2022-07-01T15:33:16;4.77;;;4.47;;
14241;SDS011;7205;50.864;12.766;2022-07-01T15:35:46;4.93;;;4.63;;
14241;SDS011;7205;50.864;12.766;2022-07-01T15:38:13;4.93;;;4.63;;
14241;SDS011;7205;50.864;12.766;2022-07-01T15:40:41;4.97;;;4.53;;
14241;SDS011;7205;50.864;12.766;2022-07-01T15:43:08;5.20;;;4.80;;
14241;SDS011;7205;50.864;12.766;2022-07-01T15:45:35;4.10;;;3.80;;
14241;SDS011;7205;50.864;12.766;2022-07-01T15:48:03;4.50;;;4.20;;
14241;SDS011;7205;50.864;12.766;2022-07-01T15:50:34;4.50;;;4.20;;
14241;SDS011;7205;50.864;12.766;2022-07-01T15:53:02;4.30;;;4.00;;
14241;SDS011;7205;50.864;12.766;2022-07-01T15:55:29;3.90;;;3.60;;
14241;SDS011;7205;50.864;12.766;2022-07-01T15:57:57;4.00;;;3.70;;
14241;SDS011;7205;50.864;12.766;2022-07-01T16:00:27;4.90;;;4.20;;
14241;SDS011;7205;50.864;12.766;2022-07-01T16:02:56;3.70;;;3.40;;
14241;SDS011;7205;50.864;12.766;2022-07-01T16:05:23;3.70;;;3.50;;
14241;SDS011;7205;50.864;12.766;2022-07-01T16:07:57;3.87;;;3.50;;
14241;SDS011;7205;50.864;12.766;2022-07-01T16:10:29;3.87;;;3.57;;
14241;SDS011;7205;50.864;12.766;2022-07-01T16:13:03;3.90;;;3.70;;
14241;SDS011;7205;50.864;12.766;2022-07-01T16:15:33;3.60;;;3.40;;
14241;SDS011;7205;50.864;12.766;2022-07-01T16:18:01;3.80;;;3.50;;
14241;SDS011;7205;50.864;12.766;2022-07-01T16:20:33;4.93;;;4.40;;
14241;SDS011;7205;50.864;12.766;2022-07-01T16:23:03;6.53;;;6.03;;